sensor_id;sensor_type;location;lat;lon;timestamp;P1;durP1;ratioP1;P2;durP2;ratioP2
13641;SDS011;6894;52.196;9.904;2022-10-16T00:01:12;1.57;;;1.07;;
13641;SDS011;6894;52.196;9.904;2022-10-16T00:03:40;1.40;;;1.30;;
13641;SDS011;6894;52.196;9.904;2022-10-16T00:06:09;4.50;;;1.70;;
13641;SDS011;6894;52.196;9.904;2022-10-16T00:08:36;1.77;;;1.20;;
13641;SDS011;6894;52.196;9.904;2022-10-16T00:11:05;1.77;;;1.20;;
13641;SDS011;6894;52.196;9.904;2022-10-16T00:13:34;1.00;;;0.90;;
13641;SDS011;6894;52.196;9.904;2022-10-16T00:16:02;0.83;;;0.50;;
13641;SDS011;6894;52.196;9.904;2022-10-16T00:18:30;2.60;;;1.10;;
13641;SDS011;6894;52.196;9.904;2022-10-16T00:21:01;1.47;;;0.90;;
13641;SDS011;6894;52.196;9.904;2022-10-16T00:23:29;0.70;;;0.70;;
13641;SDS011;6894;52.196;9.904;2022-10-16T00:25:56;1.70;;;0.90;;
13641;SDS011;6894;52.196;9.904;2022-10-16T00:28:25;2.40;;;0.90;;
13641;SDS011;6894;52.196;9.904;2022-10-16T00:30:52;1.57;;;1.00;;
13641;SDS011;6894;52.196;9.904;2022-10-16T00:33:19;1.23;;;0.97;;
13641;SDS011;6894;52.196;9.904;2022-10-16T00:35:46;1.63;;;0.80;;
13641;SDS011;6894;52.196;9.904;2022-10-16T00:38:13;1.17;;;1.07;;
13641;SDS011;6894;52.196;9.904;2022-10-16T00:40:39;2.40;;;1.30;;
13641;SDS011;6894;52.196;9.904;2022-10-16T00:43:09;0.97;;;0.97;;
13641;SDS011;6894;52.196;9.904;2022-10-16T00:45:40;1.97;;;0.90;;
13641;SDS011;6894;52.196;9.904;2022-10-16T00:48:08;2.40;;;1.10;;
13641;SDS011;6894;52.196;9.904;2022-10-16T00:50:39;2.37;;;1.30;;
13641;SDS011;6894;52.196;9.904;2022-10-16T00:53:08;1.30;;;1.10;;
13641;SDS011;6894;52.196;9.904;2022-10-16T00:55:36;1.40;;;1.10;;
13641;SDS011;6894;52.196;9.904;2022-10-16T00:58:02;2.23;;;1.27;;
13641;SDS011;6894;52.196;9.904;2022-10-16T01:00:29;1.20;;;1.10;;
13641;SDS011;6894;52.196;9.904;2022-10-16T01:02:58;2.90;;;1.20;;
13641;SDS011;6894;52.196;9.904;2022-10-16T01:05:27;3.73;;;1.37;;
13641;SDS011;6894;52.196;9.904;2022-10-16T01:08:01;2.00;;;1.40;;
13641;SDS011;6894;52.196;9.904;2022-10-16T01:10:35;3.80;;;1.40;;
13641;SDS011;6894;52.196;9.904;2022-10-16T01:13:07;2.70;;;1.73;;
13641;SDS011;6894;52.196;9.904;2022-10-16T01:15:37;1.70;;;1.60;;
13641;SDS011;6894;52.196;9.904;2022-10-16T01:18:11;3.00;;;1.40;;
13641;SDS011;6894;52.196;9.904;2022-10-16T01:20:44;2.00;;;1.57;;
13641;SDS011;6894;52.196;9.904;2022-10-16T01:23:18;2.40;;;1.73;;
13641;SDS011;6894;52.196;9.904;2022-10-16T01:28:46;5.43;;;2.03;;
13641;SDS011;6894;52.196;9.904;2022-10-16T01:31:18;1.93;;;1.60;;
13641;SDS011;6894;52.196;9.904;2022-10-16T01:33:50;2.97;;;1.30;;
13641;SDS011;6894;52.196;9.904;2022-10-16T01:36:21;1.60;;;1.23;;
13641;SDS011;6894;52.196;9.904;2022-10-16T01:38:52;2.10;;;1.43;;
13641;SDS011;6894;52.196;9.904;2022-10-16T01:41:27;4.27;;;1.77;;
13641;SDS011;6894;52.196;9.904;2022-10-16T01:44:00;2.40;;;1.10;;
13641;SDS011;6894;52.196;9.904;2022-10-16T01:46:30;2.00;;;1.40;;
13641;SDS011;6894;52.196;9.904;2022-10-16T01:48:59;3.17;;;1.30;;
13641;SDS011;6894;52.196;9.904;2022-10-16T01:51:27;3.43;;;1.30;;
13641;SDS011;6894;52.196;9.904;2022-10-16T01:53:57;3.60;;;1.33;;
13641;SDS011;6894;52.196;9.904;2022-10-16T01:56:26;1.97;;;1.13;;
13641;SDS011;6894;52.196;9.904;2022-10-16T01:58:55;3.13;;;1.43;;
13641;SDS011;6894;52.196;9.904;2022-10-16T02:01:28;3.77;;;1.20;;
13641;SDS011;6894;52.196;9.904;2022-10-16T02:03:59;2.67;;;1.50;;
13641;SDS011;6894;52.196;9.904;2022-10-16T02:06:39;2.30;;;1.80;;
13641;SDS011;6894;52.196;9.904;2022-10-16T02:09:06;3.13;;;1.57;;
13641;SDS011;6894;52.196;9.904;2022-10-16T02:11:33;3.83;;;1.40;;
13641;SDS011;6894;52.196;9.904;2022-10-16T02:14:02;2.60;;;1.30;;
13641;SDS011;6894;52.196;9.904;2022-10-16T02:16:34;2.23;;;1.40;;
13641;SDS011;6894;52.196;9.904;2022-10-16T02:19:03;2.40;;;1.37;;
13641;SDS011;6894;52.196;9.904;2022-10-16T02:21:32;2.97;;;1.27;;
13641;SDS011;6894;52.196;9.904;2022-10-16T02:24:04;3.43;;;1.33;;
13641;SDS011;6894;52.196;9.904;2022-10-16T02:26:35;2.53;;;1.00;;
13641;SDS011;6894;52.196;9.904;2022-10-16T02:29:10;1.90;;;1.13;;
13641;SDS011;6894;52.196;9.904;2022-10-16T02:31:41;5.67;;;1.60;;
13641;SDS011;6894;52.196;9.904;2022-10-16T02:34:12;4.10;;;1.20;;
13641;SDS011;6894;52.196;9.904;2022-10-16T02:36:40;2.10;;;1.43;;
13641;SDS011;6894;52.196;9.904;2022-10-16T02:39:08;3.30;;;1.70;;
13641;SDS011;6894;52.196;9.904;2022-10-16T02:41:36;2.20;;;1.20;;
13641;SDS011;6894;52.196;9.904;2022-10-16T02:44:04;2.40;;;1.33;;
13641;SDS011;6894;52.196;9.904;2022-10-16T02:46:32;7.73;;;1.77;;
13641;SDS011;6894;52.196;9.904;2022-10-16T02:48:59;3.30;;;1.53;;
13641;SDS011;6894;52.196;9.904;2022-10-16T02:51:25;3.10;;;1.80;;
13641;SDS011;6894;52.196;9.904;2022-10-16T02:53:52;2.40;;;1.30;;
13641;SDS011;6894;52.196;9.904;2022-10-16T02:56:19;1.80;;;1.37;;
13641;SDS011;6894;52.196;9.904;2022-10-16T02:58:45;1.83;;;1.50;;
13641;SDS011;6894;52.196;9.904;2022-10-16T03:01:12;3.20;;;1.63;;
13641;SDS011;6894;52.196;9.904;2022-10-16T03:03:42;3.47;;;1.83;;
13641;SDS011;6894;52.196;9.904;2022-10-16T03:06:09;5.07;;;1.50;;
13641;SDS011;6894;52.196;9.904;2022-10-16T03:08:36;4.23;;;1.33;;
13641;SDS011;6894;52.196;9.904;2022-10-16T03:11:03;2.47;;;1.70;;
13641;SDS011;6894;52.196;9.904;2022-10-16T03:13:30;2.67;;;1.70;;
13641;SDS011;6894;52.196;9.904;2022-10-16T03:15:57;3.97;;;2.10;;
13641;SDS011;6894;52.196;9.904;2022-10-16T03:18:23;3.90;;;2.23;;
13641;SDS011;6894;52.196;9.904;2022-10-16T03:20:52;3.93;;;2.07;;
13641;SDS011;6894;52.196;9.904;2022-10-16T03:23:18;3.90;;;2.20;;
13641;SDS011;6894;52.196;9.904;2022-10-16T03:25:45;2.43;;;2.23;;
13641;SDS011;6894;52.196;9.904;2022-10-16T03:28:12;2.53;;;2.10;;
13641;SDS011;6894;52.196;9.904;2022-10-16T03:30:38;4.30;;;2.10;;
13641;SDS011;6894;52.196;9.904;2022-10-16T03:33:05;2.17;;;1.70;;
13641;SDS011;6894;52.196;9.904;2022-10-16T03:35:32;2.87;;;1.80;;
13641;SDS011;6894;52.196;9.904;2022-10-16T03:38:00;3.37;;;1.70;;
13641;SDS011;6894;52.196;9.904;2022-10-16T03:40:27;3.60;;;1.63;;
13641;SDS011;6894;52.196;9.904;2022-10-16T03:42:54;2.13;;;1.93;;
13641;SDS011;6894;52.196;9.904;2022-10-16T03:45:22;3.17;;;2.20;;
13641;SDS011;6894;52.196;9.904;2022-10-16T03:47:49;5.13;;;2.07;;
13641;SDS011;6894;52.196;9.904;2022-10-16T03:50:15;5.03;;;2.33;;
13641;SDS011;6894;52.196;9.904;2022-10-16T03:52:42;2.97;;;2.00;;
13641;SDS011;6894;52.196;9.904;2022-10-16T03:55:10;2.97;;;2.13;;
13641;SDS011;6894;52.196;9.904;2022-10-16T03:57:37;4.03;;;2.43;;
13641;SDS011;6894;52.196;9.904;2022-10-16T04:00:04;2.67;;;2.47;;
13641;SDS011;6894;52.196;9.904;2022-10-16T04:02:31;4.93;;;2.67;;
13641;SDS011;6894;52.196;9.904;2022-10-16T04:04:58;3.47;;;2.07;;
13641;SDS011;6894;52.196;9.904;2022-10-16T04:07:25;5.00;;;2.73;;
13641;SDS011;6894;52.196;9.904;2022-10-16T04:09:51;3.00;;;2.37;;
13641;SDS011;6894;52.196;9.904;2022-10-16T04:12:19;2.93;;;2.13;;
13641;SDS011;6894;52.196;9.904;2022-10-16T04:14:46;3.33;;;2.33;;
13641;SDS011;6894;52.196;9.904;2022-10-16T04:17:13;2.40;;;2.13;;
13641;SDS011;6894;52.196;9.904;2022-10-16T04:19:39;2.57;;;2.23;;
13641;SDS011;6894;52.196;9.904;2022-10-16T04:22:06;2.90;;;2.60;;
13641;SDS011;6894;52.196;9.904;2022-10-16T04:24:33;2.93;;;1.90;;
13641;SDS011;6894;52.196;9.904;2022-10-16T04:27:00;2.00;;;1.90;;
13641;SDS011;6894;52.196;9.904;2022-10-16T04:29:28;3.33;;;1.90;;
13641;SDS011;6894;52.196;9.904;2022-10-16T04:31:55;4.80;;;2.27;;
13641;SDS011;6894;52.196;9.904;2022-10-16T04:34:21;3.30;;;2.00;;
13641;SDS011;6894;52.196;9.904;2022-10-16T04:36:48;2.50;;;2.03;;
13641;SDS011;6894;52.196;9.904;2022-10-16T04:39:15;2.47;;;2.10;;
13641;SDS011;6894;52.196;9.904;2022-10-16T04:41:42;3.53;;;2.17;;
13641;SDS011;6894;52.196;9.904;2022-10-16T04:44:09;2.60;;;2.40;;
13641;SDS011;6894;52.196;9.904;2022-10-16T04:46:37;3.20;;;2.40;;
13641;SDS011;6894;52.196;9.904;2022-10-16T04:49:04;2.83;;;2.27;;
13641;SDS011;6894;52.196;9.904;2022-10-16T04:51:30;4.80;;;2.40;;
13641;SDS011;6894;52.196;9.904;2022-10-16T04:53:58;2.87;;;2.57;;
13641;SDS011;6894;52.196;9.904;2022-10-16T04:56:24;3.53;;;2.50;;
13641;SDS011;6894;52.196;9.904;2022-10-16T04:58:51;3.70;;;2.83;;
13641;SDS011;6894;52.196;9.904;2022-10-16T05:01:18;4.60;;;3.00;;
13641;SDS011;6894;52.196;9.904;2022-10-16T05:03:46;2.40;;;2.20;;
13641;SDS011;6894;52.196;9.904;2022-10-16T05:06:12;4.37;;;2.80;;
13641;SDS011;6894;52.196;9.904;2022-10-16T05:08:39;4.03;;;3.13;;
13641;SDS011;6894;52.196;9.904;2022-10-16T05:11:06;5.93;;;2.70;;
13641;SDS011;6894;52.196;9.904;2022-10-16T05:13:32;4.50;;;2.80;;
13641;SDS011;6894;52.196;9.904;2022-10-16T05:15:59;3.87;;;2.73;;
13641;SDS011;6894;52.196;9.904;2022-10-16T05:18:26;3.23;;;2.63;;
13641;SDS011;6894;52.196;9.904;2022-10-16T05:20:54;4.97;;;2.97;;
13641;SDS011;6894;52.196;9.904;2022-10-16T05:23:20;2.83;;;2.47;;
13641;SDS011;6894;52.196;9.904;2022-10-16T05:25:51;4.70;;;2.47;;
13641;SDS011;6894;52.196;9.904;2022-10-16T05:28:19;4.50;;;2.53;;
13641;SDS011;6894;52.196;9.904;2022-10-16T05:30:46;2.93;;;2.60;;
13641;SDS011;6894;52.196;9.904;2022-10-16T05:33:12;2.30;;;2.10;;
13641;SDS011;6894;52.196;9.904;2022-10-16T05:35:39;2.93;;;1.90;;
13641;SDS011;6894;52.196;9.904;2022-10-16T05:38:10;3.10;;;2.27;;
13641;SDS011;6894;52.196;9.904;2022-10-16T05:40:38;3.53;;;2.30;;
13641;SDS011;6894;52.196;9.904;2022-10-16T05:43:04;2.60;;;2.40;;
13641;SDS011;6894;52.196;9.904;2022-10-16T05:45:31;3.90;;;2.13;;
13641;SDS011;6894;52.196;9.904;2022-10-16T05:48:01;4.10;;;2.57;;
13641;SDS011;6894;52.196;9.904;2022-10-16T05:50:28;1.93;;;1.30;;
13641;SDS011;6894;52.196;9.904;2022-10-16T05:52:57;1.23;;;1.13;;
13641;SDS011;6894;52.196;9.904;2022-10-16T05:55:30;1.93;;;1.10;;
13641;SDS011;6894;52.196;9.904;2022-10-16T05:57:58;3.13;;;1.20;;
13641;SDS011;6894;52.196;9.904;2022-10-16T06:00:24;1.93;;;0.93;;
13641;SDS011;6894;52.196;9.904;2022-10-16T06:02:51;1.20;;;1.10;;
13641;SDS011;6894;52.196;9.904;2022-10-16T06:05:18;1.03;;;0.93;;
13641;SDS011;6894;52.196;9.904;2022-10-16T06:07:44;2.33;;;1.17;;
13641;SDS011;6894;52.196;9.904;2022-10-16T06:10:11;1.87;;;1.17;;
13641;SDS011;6894;52.196;9.904;2022-10-16T06:12:42;3.63;;;1.17;;
13641;SDS011;6894;52.196;9.904;2022-10-16T06:15:09;2.67;;;1.10;;
13641;SDS011;6894;52.196;9.904;2022-10-16T06:17:36;2.53;;;1.10;;
13641;SDS011;6894;52.196;9.904;2022-10-16T06:20:03;1.63;;;1.10;;
13641;SDS011;6894;52.196;9.904;2022-10-16T06:22:30;1.27;;;1.13;;
13641;SDS011;6894;52.196;9.904;2022-10-16T06:24:57;1.63;;;1.23;;
13641;SDS011;6894;52.196;9.904;2022-10-16T06:27:24;2.90;;;1.10;;
13641;SDS011;6894;52.196;9.904;2022-10-16T06:29:52;2.27;;;1.10;;
13641;SDS011;6894;52.196;9.904;2022-10-16T06:32:18;1.00;;;1.00;;
13641;SDS011;6894;52.196;9.904;2022-10-16T06:34:46;1.57;;;1.03;;
13641;SDS011;6894;52.196;9.904;2022-10-16T06:37:12;1.20;;;1.10;;
13641;SDS011;6894;52.196;9.904;2022-10-16T06:39:39;1.90;;;1.03;;
13641;SDS011;6894;52.196;9.904;2022-10-16T06:42:06;1.63;;;1.47;;
13641;SDS011;6894;52.196;9.904;2022-10-16T06:44:33;5.60;;;1.13;;
13641;SDS011;6894;52.196;9.904;2022-10-16T06:47:01;1.97;;;1.07;;
13641;SDS011;6894;52.196;9.904;2022-10-16T06:49:28;0.83;;;0.83;;
13641;SDS011;6894;52.196;9.904;2022-10-16T06:51:55;2.63;;;0.90;;
13641;SDS011;6894;52.196;9.904;2022-10-16T06:54:21;1.40;;;1.17;;
13641;SDS011;6894;52.196;9.904;2022-10-16T06:56:48;0.93;;;0.93;;
13641;SDS011;6894;52.196;9.904;2022-10-16T06:59:19;1.40;;;0.93;;
13641;SDS011;6894;52.196;9.904;2022-10-16T07:01:45;1.20;;;1.00;;
13641;SDS011;6894;52.196;9.904;2022-10-16T07:04:13;1.63;;;0.90;;
13641;SDS011;6894;52.196;9.904;2022-10-16T07:06:40;2.33;;;1.10;;
13641;SDS011;6894;52.196;9.904;2022-10-16T07:09:08;2.00;;;0.80;;
13641;SDS011;6894;52.196;9.904;2022-10-16T07:11:37;1.10;;;0.90;;
13641;SDS011;6894;52.196;9.904;2022-10-16T07:14:04;0.70;;;0.70;;
13641;SDS011;6894;52.196;9.904;2022-10-16T07:16:38;0.97;;;0.97;;
13641;SDS011;6894;52.196;9.904;2022-10-16T07:19:04;0.87;;;0.87;;
13641;SDS011;6894;52.196;9.904;2022-10-16T07:21:33;1.60;;;0.87;;
13641;SDS011;6894;52.196;9.904;2022-10-16T07:24:01;1.50;;;0.70;;
13641;SDS011;6894;52.196;9.904;2022-10-16T07:26:30;1.23;;;0.80;;
13641;SDS011;6894;52.196;9.904;2022-10-16T07:28:59;2.03;;;0.93;;
13641;SDS011;6894;52.196;9.904;2022-10-16T07:31:26;1.77;;;0.73;;
13641;SDS011;6894;52.196;9.904;2022-10-16T07:33:53;0.90;;;0.70;;
13641;SDS011;6894;52.196;9.904;2022-10-16T07:36:20;1.03;;;0.63;;
13641;SDS011;6894;52.196;9.904;2022-10-16T07:38:49;2.20;;;0.80;;
13641;SDS011;6894;52.196;9.904;2022-10-16T07:41:16;1.40;;;0.90;;
13641;SDS011;6894;52.196;9.904;2022-10-16T07:43:45;2.97;;;0.93;;
13641;SDS011;6894;52.196;9.904;2022-10-16T07:46:13;1.47;;;0.83;;
13641;SDS011;6894;52.196;9.904;2022-10-16T07:48:41;0.93;;;0.60;;
13641;SDS011;6894;52.196;9.904;2022-10-16T07:51:10;1.23;;;0.60;;
13641;SDS011;6894;52.196;9.904;2022-10-16T07:53:38;0.63;;;0.60;;
13641;SDS011;6894;52.196;9.904;2022-10-16T07:56:06;2.73;;;0.70;;
13641;SDS011;6894;52.196;9.904;2022-10-16T07:58:34;2.40;;;0.70;;
13641;SDS011;6894;52.196;9.904;2022-10-16T08:01:02;0.63;;;0.50;;
13641;SDS011;6894;52.196;9.904;2022-10-16T08:03:30;6.87;;;0.83;;
13641;SDS011;6894;52.196;9.904;2022-10-16T08:05:57;0.50;;;0.50;;
13641;SDS011;6894;52.196;9.904;2022-10-16T08:08:24;0.70;;;0.60;;
13641;SDS011;6894;52.196;9.904;2022-10-16T08:10:50;3.07;;;0.70;;
13641;SDS011;6894;52.196;9.904;2022-10-16T08:13:19;1.80;;;0.60;;
13641;SDS011;6894;52.196;9.904;2022-10-16T08:15:46;3.13;;;0.60;;
13641;SDS011;6894;52.196;9.904;2022-10-16T08:18:13;2.60;;;0.70;;
13641;SDS011;6894;52.196;9.904;2022-10-16T08:20:41;0.77;;;0.60;;
13641;SDS011;6894;52.196;9.904;2022-10-16T08:23:08;1.93;;;0.60;;
13641;SDS011;6894;52.196;9.904;2022-10-16T08:25:36;0.83;;;0.60;;
13641;SDS011;6894;52.196;9.904;2022-10-16T08:28:03;1.37;;;0.73;;
13641;SDS011;6894;52.196;9.904;2022-10-16T08:30:32;0.60;;;0.60;;
13641;SDS011;6894;52.196;9.904;2022-10-16T08:32:59;0.50;;;0.50;;
13641;SDS011;6894;52.196;9.904;2022-10-16T08:35:26;0.50;;;0.50;;
13641;SDS011;6894;52.196;9.904;2022-10-16T08:37:53;1.10;;;0.60;;
13641;SDS011;6894;52.196;9.904;2022-10-16T08:40:20;1.23;;;0.70;;
13641;SDS011;6894;52.196;9.904;2022-10-16T08:42:56;7.00;;;1.00;;
13641;SDS011;6894;52.196;9.904;2022-10-16T08:45:48;1.53;;;0.43;;
13641;SDS011;6894;52.196;9.904;2022-10-16T08:48:30;0.70;;;0.60;;
13641;SDS011;6894;52.196;9.904;2022-10-16T08:51:00;1.43;;;0.60;;
13641;SDS011;6894;52.196;9.904;2022-10-16T08:53:29;0.70;;;0.70;;
13641;SDS011;6894;52.196;9.904;2022-10-16T08:56:05;1.17;;;0.50;;
13641;SDS011;6894;52.196;9.904;2022-10-16T08:58:32;1.73;;;0.53;;
13641;SDS011;6894;52.196;9.904;2022-10-16T09:01:01;3.93;;;0.73;;
13641;SDS011;6894;52.196;9.904;2022-10-16T09:03:33;2.10;;;0.87;;
13641;SDS011;6894;52.196;9.904;2022-10-16T09:06:20;1.47;;;0.57;;
13641;SDS011;6894;52.196;9.904;2022-10-16T09:08:59;0.40;;;0.40;;
13641;SDS011;6894;52.196;9.904;2022-10-16T09:11:40;4.13;;;0.53;;
13641;SDS011;6894;52.196;9.904;2022-10-16T09:14:18;0.50;;;0.40;;
13641;SDS011;6894;52.196;9.904;2022-10-16T09:17:14;1.67;;;0.40;;
13641;SDS011;6894;52.196;9.904;2022-10-16T09:19:50;2.20;;;0.67;;
13641;SDS011;6894;52.196;9.904;2022-10-16T09:22:22;1.30;;;0.60;;
13641;SDS011;6894;52.196;9.904;2022-10-16T09:24:53;0.50;;;0.50;;
13641;SDS011;6894;52.196;9.904;2022-10-16T09:27:25;1.93;;;0.50;;
13641;SDS011;6894;52.196;9.904;2022-10-16T09:29:53;0.90;;;0.60;;
13641;SDS011;6894;52.196;9.904;2022-10-16T09:32:21;1.33;;;0.70;;
13641;SDS011;6894;52.196;9.904;2022-10-16T09:34:49;2.40;;;0.70;;
13641;SDS011;6894;52.196;9.904;2022-10-16T09:37:19;0.50;;;0.40;;
13641;SDS011;6894;52.196;9.904;2022-10-16T09:39:49;1.70;;;0.67;;
13641;SDS011;6894;52.196;9.904;2022-10-16T09:42:17;1.40;;;0.40;;
13641;SDS011;6894;52.196;9.904;2022-10-16T09:44:49;2.20;;;0.63;;
13641;SDS011;6894;52.196;9.904;2022-10-16T09:47:19;1.60;;;0.60;;
13641;SDS011;6894;52.196;9.904;2022-10-16T09:49:52;2.10;;;0.60;;
13641;SDS011;6894;52.196;9.904;2022-10-16T09:52:21;0.63;;;0.50;;
13641;SDS011;6894;52.196;9.904;2022-10-16T09:54:48;2.23;;;0.40;;
13641;SDS011;6894;52.196;9.904;2022-10-16T09:57:25;2.80;;;0.60;;
13641;SDS011;6894;52.196;9.904;2022-10-16T09:59:55;2.83;;;0.70;;
13641;SDS011;6894;52.196;9.904;2022-10-16T10:02:28;2.23;;;0.67;;
13641;SDS011;6894;52.196;9.904;2022-10-16T10:04:59;0.93;;;0.50;;
13641;SDS011;6894;52.196;9.904;2022-10-16T10:07:28;1.13;;;0.50;;
13641;SDS011;6894;52.196;9.904;2022-10-16T10:10:01;1.70;;;0.50;;
13641;SDS011;6894;52.196;9.904;2022-10-16T10:12:32;1.70;;;0.60;;
13641;SDS011;6894;52.196;9.904;2022-10-16T10:15:04;0.97;;;0.40;;
13641;SDS011;6894;52.196;9.904;2022-10-16T10:17:44;0.83;;;0.30;;
13641;SDS011;6894;52.196;9.904;2022-10-16T10:20:15;0.97;;;0.30;;
13641;SDS011;6894;52.196;9.904;2022-10-16T10:22:53;1.40;;;0.50;;
13641;SDS011;6894;52.196;9.904;2022-10-16T10:30:56;1.87;;;0.80;;
13641;SDS011;6894;52.196;9.904;2022-10-16T10:33:30;2.83;;;0.67;;
13641;SDS011;6894;52.196;9.904;2022-10-16T10:36:09;0.80;;;0.40;;
13641;SDS011;6894;52.196;9.904;2022-10-16T10:38:43;1.10;;;0.60;;
13641;SDS011;6894;52.196;9.904;2022-10-16T10:41:22;0.93;;;0.47;;
13641;SDS011;6894;52.196;9.904;2022-10-16T10:44:11;1.23;;;0.40;;
13641;SDS011;6894;52.196;9.904;2022-10-16T10:46:47;2.33;;;0.80;;
13641;SDS011;6894;52.196;9.904;2022-10-16T10:49:25;3.03;;;0.50;;
13641;SDS011;6894;52.196;9.904;2022-10-16T10:52:02;1.63;;;0.53;;
13641;SDS011;6894;52.196;9.904;2022-10-16T10:54:48;1.30;;;0.63;;
13641;SDS011;6894;52.196;9.904;2022-10-16T10:57:25;3.30;;;0.63;;
13641;SDS011;6894;52.196;9.904;2022-10-16T10:59:58;1.47;;;0.50;;
13641;SDS011;6894;52.196;9.904;2022-10-16T11:02:35;1.20;;;0.47;;
13641;SDS011;6894;52.196;9.904;2022-10-16T11:05:14;2.20;;;0.70;;
13641;SDS011;6894;52.196;9.904;2022-10-16T11:08:02;1.77;;;0.40;;
13641;SDS011;6894;52.196;9.904;2022-10-16T11:10:40;3.27;;;0.50;;
13641;SDS011;6894;52.196;9.904;2022-10-16T11:13:16;1.37;;;0.40;;
13641;SDS011;6894;52.196;9.904;2022-10-16T11:15:52;2.30;;;0.50;;
13641;SDS011;6894;52.196;9.904;2022-10-16T11:18:24;1.17;;;0.50;;
13641;SDS011;6894;52.196;9.904;2022-10-16T11:21:07;1.70;;;0.47;;
13641;SDS011;6894;52.196;9.904;2022-10-16T11:23:38;1.90;;;1.00;;
13641;SDS011;6894;52.196;9.904;2022-10-16T11:26:10;0.90;;;0.50;;
13641;SDS011;6894;52.196;9.904;2022-10-16T11:28:43;3.40;;;0.90;;
13641;SDS011;6894;52.196;9.904;2022-10-16T11:31:14;3.43;;;1.00;;
13641;SDS011;6894;52.196;9.904;2022-10-16T11:33:45;1.10;;;0.60;;
13641;SDS011;6894;52.196;9.904;2022-10-16T11:36:20;2.00;;;0.50;;
13641;SDS011;6894;52.196;9.904;2022-10-16T11:38:55;3.30;;;0.90;;
13641;SDS011;6894;52.196;9.904;2022-10-16T11:41:28;0.70;;;0.50;;
13641;SDS011;6894;52.196;9.904;2022-10-16T11:44:06;1.37;;;0.43;;
13641;SDS011;6894;52.196;9.904;2022-10-16T11:46:43;2.80;;;0.60;;
13641;SDS011;6894;52.196;9.904;2022-10-16T11:49:16;1.40;;;0.33;;
13641;SDS011;6894;52.196;9.904;2022-10-16T11:51:51;1.43;;;0.60;;
13641;SDS011;6894;52.196;9.904;2022-10-16T11:54:26;1.30;;;0.23;;
13641;SDS011;6894;52.196;9.904;2022-10-16T11:56:59;0.90;;;0.30;;
13641;SDS011;6894;52.196;9.904;2022-10-16T11:59:32;0.67;;;0.20;;
13641;SDS011;6894;52.196;9.904;2022-10-16T12:02:11;1.40;;;0.50;;
13641;SDS011;6894;52.196;9.904;2022-10-16T12:04:55;0.87;;;0.23;;
13641;SDS011;6894;52.196;9.904;2022-10-16T12:07:34;1.43;;;0.37;;
13641;SDS011;6894;52.196;9.904;2022-10-16T12:10:10;1.43;;;0.50;;
13641;SDS011;6894;52.196;9.904;2022-10-16T12:12:38;1.07;;;0.20;;
13641;SDS011;6894;52.196;9.904;2022-10-16T12:15:18;1.23;;;0.50;;
13641;SDS011;6894;52.196;9.904;2022-10-16T12:17:46;1.27;;;0.30;;
13641;SDS011;6894;52.196;9.904;2022-10-16T12:23:04;2.43;;;0.30;;
13641;SDS011;6894;52.196;9.904;2022-10-16T12:25:33;0.40;;;0.20;;
13641;SDS011;6894;52.196;9.904;2022-10-16T12:28:01;2.27;;;0.30;;
13641;SDS011;6894;52.196;9.904;2022-10-16T12:30:32;0.90;;;0.37;;
13641;SDS011;6894;52.196;9.904;2022-10-16T12:33:01;0.53;;;0.20;;
13641;SDS011;6894;52.196;9.904;2022-10-16T12:35:30;1.33;;;0.30;;
13641;SDS011;6894;52.196;9.904;2022-10-16T12:38:14;1.67;;;0.40;;
13641;SDS011;6894;52.196;9.904;2022-10-16T12:40:43;1.13;;;0.50;;
13641;SDS011;6894;52.196;9.904;2022-10-16T12:43:12;1.33;;;0.30;;
13641;SDS011;6894;52.196;9.904;2022-10-16T12:45:58;1.13;;;0.30;;
13641;SDS011;6894;52.196;9.904;2022-10-16T12:48:26;0.93;;;0.30;;
13641;SDS011;6894;52.196;9.904;2022-10-16T12:50:53;0.57;;;0.30;;
13641;SDS011;6894;52.196;9.904;2022-10-16T12:53:22;0.80;;;0.30;;
13641;SDS011;6894;52.196;9.904;2022-10-16T12:55:56;1.53;;;0.30;;
13641;SDS011;6894;52.196;9.904;2022-10-16T12:58:48;1.73;;;0.40;;
13641;SDS011;6894;52.196;9.904;2022-10-16T13:01:26;0.80;;;0.40;;
13641;SDS011;6894;52.196;9.904;2022-10-16T13:04:03;1.00;;;0.40;;
13641;SDS011;6894;52.196;9.904;2022-10-16T13:06:58;1.13;;;0.33;;
13641;SDS011;6894;52.196;9.904;2022-10-16T13:09:42;0.60;;;0.30;;
13641;SDS011;6894;52.196;9.904;2022-10-16T13:12:23;1.03;;;0.40;;
13641;SDS011;6894;52.196;9.904;2022-10-16T13:15:14;1.33;;;0.30;;
13641;SDS011;6894;52.196;9.904;2022-10-16T13:17:52;1.57;;;0.40;;
13641;SDS011;6894;52.196;9.904;2022-10-16T13:20:29;4.30;;;1.00;;
13641;SDS011;6894;52.196;9.904;2022-10-16T13:23:03;1.73;;;0.70;;
13641;SDS011;6894;52.196;9.904;2022-10-16T13:25:43;2.47;;;0.77;;
13641;SDS011;6894;52.196;9.904;2022-10-16T13:28:17;1.57;;;0.30;;
13641;SDS011;6894;52.196;9.904;2022-10-16T13:30:53;0.93;;;0.20;;
13641;SDS011;6894;52.196;9.904;2022-10-16T13:33:24;1.33;;;0.50;;
13641;SDS011;6894;52.196;9.904;2022-10-16T13:35:57;2.40;;;0.63;;
13641;SDS011;6894;52.196;9.904;2022-10-16T13:38:24;1.50;;;0.70;;
13641;SDS011;6894;52.196;9.904;2022-10-16T13:40:55;1.50;;;0.70;;
13641;SDS011;6894;52.196;9.904;2022-10-16T13:43:25;2.93;;;0.90;;
13641;SDS011;6894;52.196;9.904;2022-10-16T13:45:57;1.43;;;0.50;;
13641;SDS011;6894;52.196;9.904;2022-10-16T13:48:26;0.43;;;0.20;;
13641;SDS011;6894;52.196;9.904;2022-10-16T13:51:01;1.17;;;0.20;;
13641;SDS011;6894;52.196;9.904;2022-10-16T13:53:33;0.50;;;0.27;;
13641;SDS011;6894;52.196;9.904;2022-10-16T13:56:06;1.43;;;0.37;;
13641;SDS011;6894;52.196;9.904;2022-10-16T13:58:34;0.93;;;0.33;;
13641;SDS011;6894;52.196;9.904;2022-10-16T14:01:01;1.03;;;0.20;;
13641;SDS011;6894;52.196;9.904;2022-10-16T14:03:30;1.57;;;0.30;;
13641;SDS011;6894;52.196;9.904;2022-10-16T14:05:59;2.10;;;0.30;;
13641;SDS011;6894;52.196;9.904;2022-10-16T14:08:28;1.03;;;0.20;;
13641;SDS011;6894;52.196;9.904;2022-10-16T14:10:56;1.53;;;0.60;;
13641;SDS011;6894;52.196;9.904;2022-10-16T14:13:29;1.13;;;0.20;;
13641;SDS011;6894;52.196;9.904;2022-10-16T14:15:58;0.93;;;0.43;;
13641;SDS011;6894;52.196;9.904;2022-10-16T14:18:33;0.93;;;0.30;;
13641;SDS011;6894;52.196;9.904;2022-10-16T14:21:04;1.90;;;0.30;;
13641;SDS011;6894;52.196;9.904;2022-10-16T14:23:32;1.57;;;0.40;;
13641;SDS011;6894;52.196;9.904;2022-10-16T14:26:06;2.03;;;0.40;;
13641;SDS011;6894;52.196;9.904;2022-10-16T14:28:40;1.83;;;0.30;;
13641;SDS011;6894;52.196;9.904;2022-10-16T14:33:58;0.57;;;0.40;;
13641;SDS011;6894;52.196;9.904;2022-10-16T14:36:25;1.60;;;0.23;;
13641;SDS011;6894;52.196;9.904;2022-10-16T14:38:56;1.30;;;0.50;;
13641;SDS011;6894;52.196;9.904;2022-10-16T14:41:26;1.33;;;0.47;;
13641;SDS011;6894;52.196;9.904;2022-10-16T14:43:55;1.47;;;0.40;;
13641;SDS011;6894;52.196;9.904;2022-10-16T14:46:28;2.10;;;0.30;;
13641;SDS011;6894;52.196;9.904;2022-10-16T14:48:59;0.20;;;0.20;;
13641;SDS011;6894;52.196;9.904;2022-10-16T14:51:28;0.53;;;0.30;;
13641;SDS011;6894;52.196;9.904;2022-10-16T14:53:55;0.83;;;0.30;;
13641;SDS011;6894;52.196;9.904;2022-10-16T14:56:22;1.10;;;0.40;;
13641;SDS011;6894;52.196;9.904;2022-10-16T14:58:51;1.17;;;0.50;;
13641;SDS011;6894;52.196;9.904;2022-10-16T15:01:20;0.50;;;0.30;;
13641;SDS011;6894;52.196;9.904;2022-10-16T15:03:52;1.73;;;0.73;;
13641;SDS011;6894;52.196;9.904;2022-10-16T15:06:20;1.37;;;0.40;;
13641;SDS011;6894;52.196;9.904;2022-10-16T15:08:47;1.30;;;0.50;;
13641;SDS011;6894;52.196;9.904;2022-10-16T15:11:15;2.30;;;0.50;;
13641;SDS011;6894;52.196;9.904;2022-10-16T15:13:43;1.47;;;0.40;;
13641;SDS011;6894;52.196;9.904;2022-10-16T15:16:10;1.40;;;0.40;;
13641;SDS011;6894;52.196;9.904;2022-10-16T15:18:39;1.70;;;0.50;;
13641;SDS011;6894;52.196;9.904;2022-10-16T15:21:06;1.67;;;0.30;;
13641;SDS011;6894;52.196;9.904;2022-10-16T15:23:34;1.70;;;0.43;;
13641;SDS011;6894;52.196;9.904;2022-10-16T15:26:00;1.07;;;0.40;;
13641;SDS011;6894;52.196;9.904;2022-10-16T15:28:27;1.37;;;0.50;;
13641;SDS011;6894;52.196;9.904;2022-10-16T15:30:54;1.60;;;0.40;;
13641;SDS011;6894;52.196;9.904;2022-10-16T15:33:23;1.30;;;0.40;;